sensor_id;sensor_type;location;lat;lon;timestamp;P1;durP1;ratioP1;P2;durP2;ratioP2
5343;SDS011;2694;48.950;8.970;2023-02-08T00:00:12;25.90;;;11.80;;
5343;SDS011;2694;48.950;8.970;2023-02-08T00:02:39;24.65;;;12.50;;
5343;SDS011;2694;48.950;8.970;2023-02-08T00:05:06;24.65;;;11.90;;
5343;SDS011;2694;48.950;8.970;2023-02-08T00:07:33;24.73;;;12.50;;
5343;SDS011;2694;48.950;8.970;2023-02-08T00:10:00;24.10;;;11.48;;
5343;SDS011;2694;48.950;8.970;2023-02-08T00:12:29;18.77;;;10.82;;
5343;SDS011;2694;48.950;8.970;2023-02-08T00:14:56;22.20;;;11.35;;
5343;SDS011;2694;48.950;8.970;2023-02-08T00:17:24;19.63;;;10.60;;
5343;SDS011;2694;48.950;8.970;2023-02-08T00:19:51;20.40;;;11.20;;
5343;SDS011;2694;48.950;8.970;2023-02-08T00:22:18;22.90;;;11.02;;
5343;SDS011;2694;48.950;8.970;2023-02-08T00:24:44;22.77;;;11.20;;
5343;SDS011;2694;48.950;8.970;2023-02-08T00:27:11;20.77;;;11.35;;
5343;SDS011;2694;48.950;8.970;2023-02-08T00:29:39;21.38;;;10.90;;
5343;SDS011;2694;48.950;8.970;2023-02-08T00:32:06;24.75;;;10.80;;
5343;SDS011;2694;48.950;8.970;2023-02-08T00:34:36;19.55;;;10.10;;
5343;SDS011;2694;48.950;8.970;2023-02-08T00:37:03;20.48;;;10.35;;
5343;SDS011;2694;48.950;8.970;2023-02-08T00:39:30;23.88;;;10.45;;
5343;SDS011;2694;48.950;8.970;2023-02-08T00:41:57;21.92;;;10.45;;
5343;SDS011;2694;48.950;8.970;2023-02-08T00:44:24;19.50;;;10.75;;
5343;SDS011;2694;48.950;8.970;2023-02-08T00:46:51;19.80;;;9.60;;
5343;SDS011;2694;48.950;8.970;2023-02-08T00:49:18;18.35;;;9.75;;
5343;SDS011;2694;48.950;8.970;2023-02-08T00:51:46;18.70;;;9.50;;
5343;SDS011;2694;48.950;8.970;2023-02-08T00:54:13;16.20;;;8.73;;
5343;SDS011;2694;48.950;8.970;2023-02-08T00:56:41;17.73;;;9.57;;
5343;SDS011;2694;48.950;8.970;2023-02-08T00:59:08;18.10;;;9.10;;
5343;SDS011;2694;48.950;8.970;2023-02-08T01:01:35;18.73;;;9.57;;
5343;SDS011;2694;48.950;8.970;2023-02-08T01:04:03;18.00;;;8.93;;
5343;SDS011;2694;48.950;8.970;2023-02-08T01:06:30;20.48;;;9.90;;
5343;SDS011;2694;48.950;8.970;2023-02-08T01:08:58;18.55;;;9.50;;
5343;SDS011;2694;48.950;8.970;2023-02-08T01:11:25;20.75;;;10.57;;
5343;SDS011;2694;48.950;8.970;2023-02-08T01:13:52;19.75;;;10.02;;
5343;SDS011;2694;48.950;8.970;2023-02-08T01:16:22;21.52;;;9.38;;
5343;SDS011;2694;48.950;8.970;2023-02-08T01:18:50;19.38;;;9.90;;
5343;SDS011;2694;48.950;8.970;2023-02-08T01:21:19;20.38;;;10.27;;
5343;SDS011;2694;48.950;8.970;2023-02-08T01:23:48;20.48;;;10.68;;
5343;SDS011;2694;48.950;8.970;2023-02-08T01:26:17;22.85;;;10.43;;
5343;SDS011;2694;48.950;8.970;2023-02-08T01:28:45;18.92;;;9.63;;
5343;SDS011;2694;48.950;8.970;2023-02-08T01:31:13;20.05;;;10.10;;
5343;SDS011;2694;48.950;8.970;2023-02-08T01:33:41;20.58;;;9.48;;
5343;SDS011;2694;48.950;8.970;2023-02-08T01:36:09;20.15;;;9.57;;
5343;SDS011;2694;48.950;8.970;2023-02-08T01:38:36;17.55;;;10.02;;
5343;SDS011;2694;48.950;8.970;2023-02-08T01:41:04;17.73;;;9.77;;
5343;SDS011;2694;48.950;8.970;2023-02-08T01:46:39;19.73;;;10.45;;
5343;SDS011;2694;48.950;8.970;2023-02-08T01:49:08;19.73;;;11.00;;
5343;SDS011;2694;48.950;8.970;2023-02-08T01:51:39;15.45;;;9.15;;
5343;SDS011;2694;48.950;8.970;2023-02-08T01:54:10;19.35;;;9.60;;
5343;SDS011;2694;48.950;8.970;2023-02-08T01:56:40;18.15;;;9.57;;
5343;SDS011;2694;48.950;8.970;2023-02-08T01:59:11;18.08;;;10.10;;
5343;SDS011;2694;48.950;8.970;2023-02-08T02:01:42;18.48;;;9.60;;
5343;SDS011;2694;48.950;8.970;2023-02-08T02:04:12;19.98;;;10.00;;
5343;SDS011;2694;48.950;8.970;2023-02-08T02:06:40;17.77;;;9.60;;
5343;SDS011;2694;48.950;8.970;2023-02-08T02:09:12;19.77;;;10.30;;
5343;SDS011;2694;48.950;8.970;2023-02-08T02:11:44;26.58;;;10.85;;
5343;SDS011;2694;48.950;8.970;2023-02-08T02:14:13;26.73;;;11.75;;
5343;SDS011;2694;48.950;8.970;2023-02-08T02:16:40;23.30;;;10.90;;
5343;SDS011;2694;48.950;8.970;2023-02-08T02:19:10;22.10;;;11.10;;
5343;SDS011;2694;48.950;8.970;2023-02-08T02:21:45;19.30;;;9.30;;
5343;SDS011;2694;48.950;8.970;2023-02-08T02:24:27;20.25;;;9.50;;
5343;SDS011;2694;48.950;8.970;2023-02-08T02:27:24;18.20;;;9.25;;
5343;SDS011;2694;48.950;8.970;2023-02-08T02:35:57;17.33;;;9.45;;
5343;SDS011;2694;48.950;8.970;2023-02-08T02:38:30;18.30;;;8.63;;
5343;SDS011;2694;48.950;8.970;2023-02-08T02:41:09;17.97;;;8.93;;
5343;SDS011;2694;48.950;8.970;2023-02-08T02:44:04;17.13;;;8.95;;
5343;SDS011;2694;48.950;8.970;2023-02-08T02:46:37;20.45;;;10.05;;
5343;SDS011;2694;48.950;8.970;2023-02-08T02:49:11;19.67;;;10.00;;
5343;SDS011;2694;48.950;8.970;2023-02-08T02:51:45;20.00;;;9.88;;
5343;SDS011;2694;48.950;8.970;2023-02-08T02:54:18;22.48;;;10.55;;
5343;SDS011;2694;48.950;8.970;2023-02-08T02:56:48;18.40;;;9.27;;
5343;SDS011;2694;48.950;8.970;2023-02-08T02:59:17;19.85;;;9.27;;
5343;SDS011;2694;48.950;8.970;2023-02-08T03:01:45;16.50;;;8.70;;
5343;SDS011;2694;48.950;8.970;2023-02-08T03:04:14;17.93;;;8.93;;
5343;SDS011;2694;48.950;8.970;2023-02-08T03:06:47;20.98;;;9.35;;
5343;SDS011;2694;48.950;8.970;2023-02-08T03:09:30;17.17;;;8.95;;
5343;SDS011;2694;48.950;8.970;2023-02-08T03:12:14;21.52;;;9.90;;
5343;SDS011;2694;48.950;8.970;2023-02-08T03:14:56;19.80;;;9.65;;
5343;SDS011;2694;48.950;8.970;2023-02-08T03:17:39;16.63;;;9.27;;
5343;SDS011;2694;48.950;8.970;2023-02-08T03:20:20;19.90;;;9.88;;
5343;SDS011;2694;48.950;8.970;2023-02-08T03:22:53;16.52;;;8.88;;
5343;SDS011;2694;48.950;8.970;2023-02-08T03:25:26;17.95;;;9.00;;
5343;SDS011;2694;48.950;8.970;2023-02-08T03:28:00;19.17;;;9.27;;
5343;SDS011;2694;48.950;8.970;2023-02-08T03:30:34;23.15;;;9.95;;
5343;SDS011;2694;48.950;8.970;2023-02-08T03:33:11;20.27;;;10.30;;
5343;SDS011;2694;48.950;8.970;2023-02-08T03:35:44;18.20;;;9.68;;
5343;SDS011;2694;48.950;8.970;2023-02-08T03:38:21;23.40;;;10.07;;
5343;SDS011;2694;48.950;8.970;2023-02-08T03:40:53;24.48;;;11.05;;
5343;SDS011;2694;48.950;8.970;2023-02-08T03:43:24;21.80;;;10.57;;
5343;SDS011;2694;48.950;8.970;2023-02-08T03:45:56;19.23;;;10.00;;
5343;SDS011;2694;48.950;8.970;2023-02-08T03:48:27;18.88;;;10.10;;
5343;SDS011;2694;48.950;8.970;2023-02-08T03:50:57;24.02;;;10.65;;
5343;SDS011;2694;48.950;8.970;2023-02-08T03:53:26;23.80;;;11.05;;
5343;SDS011;2694;48.950;8.970;2023-02-08T03:55:57;18.67;;;9.70;;
5343;SDS011;2694;48.950;8.970;2023-02-08T03:58:30;25.00;;;11.43;;
5343;SDS011;2694;48.950;8.970;2023-02-08T04:01:01;20.35;;;10.27;;
5343;SDS011;2694;48.950;8.970;2023-02-08T04:03:33;19.20;;;9.93;;
5343;SDS011;2694;48.950;8.970;2023-02-08T04:06:03;18.73;;;10.07;;
5343;SDS011;2694;48.950;8.970;2023-02-08T04:08:30;21.52;;;10.73;;
5343;SDS011;2694;48.950;8.970;2023-02-08T04:10:57;20.38;;;10.45;;
5343;SDS011;2694;48.950;8.970;2023-02-08T04:13:24;20.58;;;9.23;;
5343;SDS011;2694;48.950;8.970;2023-02-08T04:15:51;20.60;;;11.02;;
5343;SDS011;2694;48.950;8.970;2023-02-08T04:18:18;18.90;;;9.98;;
5343;SDS011;2694;48.950;8.970;2023-02-08T04:20:45;20.27;;;10.48;;
5343;SDS011;2694;48.950;8.970;2023-02-08T04:23:13;19.83;;;10.18;;
5343;SDS011;2694;48.950;8.970;2023-02-08T04:25:40;23.27;;;10.38;;
5343;SDS011;2694;48.950;8.970;2023-02-08T04:28:07;18.37;;;9.40;;
5343;SDS011;2694;48.950;8.970;2023-02-08T04:30:34;22.33;;;10.18;;
5343;SDS011;2694;48.950;8.970;2023-02-08T04:33:00;18.35;;;10.05;;
5343;SDS011;2694;48.950;8.970;2023-02-08T04:35:27;18.87;;;10.47;;
5343;SDS011;2694;48.950;8.970;2023-02-08T04:37:54;22.42;;;11.25;;
5343;SDS011;2694;48.950;8.970;2023-02-08T04:40:22;17.38;;;10.05;;
5343;SDS011;2694;48.950;8.970;2023-02-08T04:42:49;19.13;;;10.03;;
5343;SDS011;2694;48.950;8.970;2023-02-08T04:45:16;22.67;;;10.68;;
5343;SDS011;2694;48.950;8.970;2023-02-08T04:47:43;20.02;;;9.98;;
5343;SDS011;2694;48.950;8.970;2023-02-08T04:50:10;25.50;;;11.70;;
5343;SDS011;2694;48.950;8.970;2023-02-08T04:52:37;24.27;;;11.85;;
5343;SDS011;2694;48.950;8.970;2023-02-08T04:55:04;18.52;;;10.85;;
5343;SDS011;2694;48.950;8.970;2023-02-08T04:57:33;20.65;;;11.10;;
5343;SDS011;2694;48.950;8.970;2023-02-08T05:00:00;23.17;;;10.63;;
5343;SDS011;2694;48.950;8.970;2023-02-08T05:02:27;24.50;;;11.25;;
5343;SDS011;2694;48.950;8.970;2023-02-08T05:04:54;21.55;;;10.68;;
5343;SDS011;2694;48.950;8.970;2023-02-08T05:07:21;22.70;;;11.73;;
5343;SDS011;2694;48.950;8.970;2023-02-08T05:09:47;26.90;;;10.90;;
5343;SDS011;2694;48.950;8.970;2023-02-08T05:12:14;21.23;;;10.50;;
5343;SDS011;2694;48.950;8.970;2023-02-08T05:14:43;23.13;;;10.70;;
5343;SDS011;2694;48.950;8.970;2023-02-08T05:17:10;22.33;;;11.18;;
5343;SDS011;2694;48.950;8.970;2023-02-08T05:19:37;22.25;;;11.52;;
5343;SDS011;2694;48.950;8.970;2023-02-08T05:22:03;22.03;;;10.47;;
5343;SDS011;2694;48.950;8.970;2023-02-08T05:24:30;18.10;;;9.63;;
5343;SDS011;2694;48.950;8.970;2023-02-08T05:26:57;20.33;;;11.20;;
5343;SDS011;2694;48.950;8.970;2023-02-08T05:29:24;22.80;;;11.32;;
5343;SDS011;2694;48.950;8.970;2023-02-08T05:31:52;23.27;;;11.02;;
5343;SDS011;2694;48.950;8.970;2023-02-08T05:34:19;27.00;;;10.82;;
5343;SDS011;2694;48.950;8.970;2023-02-08T05:36:46;28.63;;;12.25;;
5343;SDS011;2694;48.950;8.970;2023-02-08T05:39:13;22.42;;;11.57;;
5343;SDS011;2694;48.950;8.970;2023-02-08T05:41:40;25.33;;;11.57;;
5343;SDS011;2694;48.950;8.970;2023-02-08T05:44:07;19.00;;;10.40;;
5343;SDS011;2694;48.950;8.970;2023-02-08T05:46:33;27.38;;;11.57;;
5343;SDS011;2694;48.950;8.970;2023-02-08T05:49:02;21.92;;;10.50;;
5343;SDS011;2694;48.950;8.970;2023-02-08T05:51:29;24.13;;;10.68;;
5343;SDS011;2694;48.950;8.970;2023-02-08T05:53:56;21.38;;;10.93;;
5343;SDS011;2694;48.950;8.970;2023-02-08T05:56:22;21.60;;;10.82;;
5343;SDS011;2694;48.950;8.970;2023-02-08T05:58:49;25.13;;;11.20;;
5343;SDS011;2694;48.950;8.970;2023-02-08T06:01:16;22.50;;;10.70;;
5343;SDS011;2694;48.950;8.970;2023-02-08T06:03:43;23.90;;;12.15;;
5343;SDS011;2694;48.950;8.970;2023-02-08T06:06:11;24.92;;;11.60;;
5343;SDS011;2694;48.950;8.970;2023-02-08T06:08:38;25.02;;;11.10;;
5343;SDS011;2694;48.950;8.970;2023-02-08T06:11:06;23.35;;;10.30;;
5343;SDS011;2694;48.950;8.970;2023-02-08T06:13:32;20.73;;;11.05;;
5343;SDS011;2694;48.950;8.970;2023-02-08T06:16:00;23.63;;;10.68;;
5343;SDS011;2694;48.950;8.970;2023-02-08T06:18:27;21.27;;;10.60;;
5343;SDS011;2694;48.950;8.970;2023-02-08T06:20:54;26.08;;;12.20;;
5343;SDS011;2694;48.950;8.970;2023-02-08T06:23:22;24.47;;;11.33;;
5343;SDS011;2694;48.950;8.970;2023-02-08T06:25:49;22.70;;;10.95;;
5343;SDS011;2694;48.950;8.970;2023-02-08T06:28:16;23.50;;;11.73;;
5343;SDS011;2694;48.950;8.970;2023-02-08T06:30:43;26.70;;;12.15;;
5343;SDS011;2694;48.950;8.970;2023-02-08T06:33:10;26.70;;;11.77;;
5343;SDS011;2694;48.950;8.970;2023-02-08T06:35:37;26.15;;;11.98;;
5343;SDS011;2694;48.950;8.970;2023-02-08T06:38:04;24.27;;;11.50;;
5343;SDS011;2694;48.950;8.970;2023-02-08T06:40:32;24.02;;;11.77;;
5343;SDS011;2694;48.950;8.970;2023-02-08T06:42:59;27.85;;;12.02;;
5343;SDS011;2694;48.950;8.970;2023-02-08T06:45:26;25.65;;;11.93;;
5343;SDS011;2694;48.950;8.970;2023-02-08T06:47:53;24.02;;;11.05;;
5343;SDS011;2694;48.950;8.970;2023-02-08T06:50:20;22.40;;;11.48;;
5343;SDS011;2694;48.950;8.970;2023-02-08T06:52:46;23.83;;;11.10;;
5343;SDS011;2694;48.950;8.970;2023-02-08T06:55:13;25.60;;;11.93;;
5343;SDS011;2694;48.950;8.970;2023-02-08T06:57:42;24.33;;;12.00;;
5343;SDS011;2694;48.950;8.970;2023-02-08T07:00:09;21.15;;;11.45;;
5343;SDS011;2694;48.950;8.970;2023-02-08T07:02:37;24.65;;;11.70;;
5343;SDS011;2694;48.950;8.970;2023-02-08T07:05:04;31.42;;;15.20;;
5343;SDS011;2694;48.950;8.970;2023-02-08T07:07:31;27.70;;;13.53;;
5343;SDS011;2694;48.950;8.970;2023-02-08T07:10:01;27.15;;;12.55;;
5343;SDS011;2694;48.950;8.970;2023-02-08T07:12:27;23.47;;;12.07;;
5343;SDS011;2694;48.950;8.970;2023-02-08T07:14:56;25.90;;;12.55;;
5343;SDS011;2694;48.950;8.970;2023-02-08T07:17:23;25.65;;;12.32;;
5343;SDS011;2694;48.950;8.970;2023-02-08T07:19:49;20.02;;;11.18;;
5343;SDS011;2694;48.950;8.970;2023-02-08T07:22:16;24.80;;;12.13;;
5343;SDS011;2694;48.950;8.970;2023-02-08T07:24:43;23.38;;;11.73;;
5343;SDS011;2694;48.950;8.970;2023-02-08T07:27:11;24.45;;;11.75;;
5343;SDS011;2694;48.950;8.970;2023-02-08T07:29:38;25.48;;;13.10;;
5343;SDS011;2694;48.950;8.970;2023-02-08T07:32:07;25.13;;;12.38;;
5343;SDS011;2694;48.950;8.970;2023-02-08T07:34:36;26.67;;;12.15;;
5343;SDS011;2694;48.950;8.970;2023-02-08T07:37:05;25.30;;;12.90;;
5343;SDS011;2694;48.950;8.970;2023-02-08T07:39:32;24.77;;;12.88;;
5343;SDS011;2694;48.950;8.970;2023-02-08T07:41:59;25.50;;;13.02;;
5343;SDS011;2694;48.950;8.970;2023-02-08T07:44:26;29.90;;;13.10;;
5343;SDS011;2694;48.950;8.970;2023-02-08T07:46:53;23.92;;;12.32;;
5343;SDS011;2694;48.950;8.970;2023-02-08T07:49:21;24.80;;;11.90;;
5343;SDS011;2694;48.950;8.970;2023-02-08T07:51:48;24.25;;;12.05;;
5343;SDS011;2694;48.950;8.970;2023-02-08T07:54:15;26.50;;;12.73;;
5343;SDS011;2694;48.950;8.970;2023-02-08T07:56:42;29.20;;;13.30;;
5343;SDS011;2694;48.950;8.970;2023-02-08T07:59:09;31.10;;;14.20;;
5343;SDS011;2694;48.950;8.970;2023-02-08T08:01:36;26.55;;;13.57;;
5343;SDS011;2694;48.950;8.970;2023-02-08T08:04:03;30.30;;;13.93;;
5343;SDS011;2694;48.950;8.970;2023-02-08T08:06:31;31.13;;;13.85;;
5343;SDS011;2694;48.950;8.970;2023-02-08T08:08:58;27.15;;;13.60;;
5343;SDS011;2694;48.950;8.970;2023-02-08T08:11:25;29.92;;;14.10;;
5343;SDS011;2694;48.950;8.970;2023-02-08T08:13:52;29.83;;;14.43;;
5343;SDS011;2694;48.950;8.970;2023-02-08T08:16:19;29.25;;;13.25;;
5343;SDS011;2694;48.950;8.970;2023-02-08T08:18:46;25.58;;;12.55;;
5343;SDS011;2694;48.950;8.970;2023-02-08T08:21:13;28.75;;;14.27;;
5343;SDS011;2694;48.950;8.970;2023-02-08T08:23:42;25.77;;;11.90;;
5343;SDS011;2694;48.950;8.970;2023-02-08T08:26:09;20.73;;;12.10;;
5343;SDS011;2694;48.950;8.970;2023-02-08T08:28:39;23.30;;;10.77;;
5343;SDS011;2694;48.950;8.970;2023-02-08T08:31:09;21.60;;;11.10;;
5343;SDS011;2694;48.950;8.970;2023-02-08T08:33:38;21.60;;;11.30;;
5343;SDS011;2694;48.950;8.970;2023-02-08T08:36:06;20.10;;;10.60;;
5343;SDS011;2694;48.950;8.970;2023-02-08T08:38:33;22.30;;;10.68;;
5343;SDS011;2694;48.950;8.970;2023-02-08T08:41:04;24.02;;;11.90;;
5343;SDS011;2694;48.950;8.970;2023-02-08T08:43:32;22.15;;;11.15;;
5343;SDS011;2694;48.950;8.970;2023-02-08T08:46:00;24.13;;;10.15;;
5343;SDS011;2694;48.950;8.970;2023-02-08T08:48:27;23.93;;;9.90;;
5343;SDS011;2694;48.950;8.970;2023-02-08T08:50:55;23.95;;;11.25;;
5343;SDS011;2694;48.950;8.970;2023-02-08T08:53:24;24.08;;;11.98;;
5343;SDS011;2694;48.950;8.970;2023-02-08T08:55:50;21.25;;;11.15;;
5343;SDS011;2694;48.950;8.970;2023-02-08T08:58:19;23.60;;;12.02;;
5343;SDS011;2694;48.950;8.970;2023-02-08T09:00:46;22.08;;;11.50;;
5343;SDS011;2694;48.950;8.970;2023-02-08T09:03:12;25.10;;;11.38;;
5343;SDS011;2694;48.950;8.970;2023-02-08T09:05:39;20.88;;;10.18;;
5343;SDS011;2694;48.950;8.970;2023-02-08T09:08:06;17.85;;;9.40;;
5343;SDS011;2694;48.950;8.970;2023-02-08T09:10:33;21.13;;;9.73;;
5343;SDS011;2694;48.950;8.970;2023-02-08T09:13:00;18.90;;;9.50;;
5343;SDS011;2694;48.950;8.970;2023-02-08T09:15:28;19.45;;;10.07;;
5343;SDS011;2694;48.950;8.970;2023-02-08T09:17:55;24.23;;;10.68;;
5343;SDS011;2694;48.950;8.970;2023-02-08T09:20:22;24.17;;;11.20;;
5343;SDS011;2694;48.950;8.970;2023-02-08T09:22:49;19.80;;;9.95;;
5343;SDS011;2694;48.950;8.970;2023-02-08T09:25:17;22.67;;;10.30;;
5343;SDS011;2694;48.950;8.970;2023-02-08T09:27:44;17.50;;;9.20;;
5343;SDS011;2694;48.950;8.970;2023-02-08T09:30:11;22.60;;;10.70;;
5343;SDS011;2694;48.950;8.970;2023-02-08T09:32:40;25.43;;;11.23;;
5343;SDS011;2694;48.950;8.970;2023-02-08T09:35:07;22.63;;;9.90;;
5343;SDS011;2694;48.950;8.970;2023-02-08T09:37:34;17.88;;;9.35;;
5343;SDS011;2694;48.950;8.970;2023-02-08T09:40:00;20.15;;;9.70;;
5343;SDS011;2694;48.950;8.970;2023-02-08T09:42:28;19.00;;;10.00;;
5343;SDS011;2694;48.950;8.970;2023-02-08T09:45:08;22.05;;;10.30;;
5343;SDS011;2694;48.950;8.970;2023-02-08T09:47:58;20.73;;;10.07;;
5343;SDS011;2694;48.950;8.970;2023-02-08T09:50:31;24.50;;;11.10;;
5343;SDS011;2694;48.950;8.970;2023-02-08T09:53:02;22.10;;;10.70;;
5343;SDS011;2694;48.950;8.970;2023-02-08T09:55:35;22.58;;;10.00;;
5343;SDS011;2694;48.950;8.970;2023-02-08T09:58:06;19.55;;;9.38;;
5343;SDS011;2694;48.950;8.970;2023-02-08T10:00:43;21.08;;;10.52;;
5343;SDS011;2694;48.950;8.970;2023-02-08T10:03:18;20.98;;;10.10;;
5343;SDS011;2694;48.950;8.970;2023-02-08T10:05:50;25.50;;;11.30;;
5343;SDS011;2694;48.950;8.970;2023-02-08T10:08:17;25.02;;;10.98;;
5343;SDS011;2694;48.950;8.970;2023-02-08T10:10:47;23.13;;;9.95;;
5343;SDS011;2694;48.950;8.970;2023-02-08T10:13:26;21.40;;;10.38;;
5343;SDS011;2694;48.950;8.970;2023-02-08T10:16:12;19.38;;;10.13;;
5343;SDS011;2694;48.950;8.970;2023-02-08T10:18:50;18.27;;;9.80;;
5343;SDS011;2694;48.950;8.970;2023-02-08T10:21:30;20.05;;;9.35;;
5343;SDS011;2694;48.950;8.970;2023-02-08T10:24:16;21.30;;;10.48;;
5343;SDS011;2694;48.950;8.970;2023-02-08T10:27:00;18.45;;;9.13;;
5343;SDS011;2694;48.950;8.970;2023-02-08T10:32:43;20.30;;;9.18;;
5343;SDS011;2694;48.950;8.970;2023-02-08T10:35:25;20.77;;;10.27;;
5343;SDS011;2694;48.950;8.970;2023-02-08T10:37:56;19.00;;;9.18;;
5343;SDS011;2694;48.950;8.970;2023-02-08T10:40:33;17.90;;;9.77;;
5343;SDS011;2694;48.950;8.970;2023-02-08T10:43:05;21.90;;;10.10;;
5343;SDS011;2694;48.950;8.970;2023-02-08T10:45:47;19.83;;;10.05;;
5343;SDS011;2694;48.950;8.970;2023-02-08T10:48:20;18.40;;;9.43;;
5343;SDS011;2694;48.950;8.970;2023-02-08T10:50:55;20.58;;;8.95;;
5343;SDS011;2694;48.950;8.970;2023-02-08T10:53:22;17.10;;;8.95;;
5343;SDS011;2694;48.950;8.970;2023-02-08T10:55:49;17.23;;;8.82;;
5343;SDS011;2694;48.950;8.970;2023-02-08T10:58:17;19.13;;;9.93;;
5343;SDS011;2694;48.950;8.970;2023-02-08T11:00:46;20.45;;;9.77;;
5343;SDS011;2694;48.950;8.970;2023-02-08T11:03:16;18.05;;;9.70;;
5343;SDS011;2694;48.950;8.970;2023-02-08T11:05:46;16.10;;;8.43;;
5343;SDS011;2694;48.950;8.970;2023-02-08T11:08:15;16.85;;;8.98;;
5343;SDS011;2694;48.950;8.970;2023-02-08T11:10:45;17.23;;;8.75;;
5343;SDS011;2694;48.950;8.970;2023-02-08T11:13:22;15.80;;;8.43;;
5343;SDS011;2694;48.950;8.970;2023-02-08T11:15:51;16.33;;;8.35;;
5343;SDS011;2694;48.950;8.970;2023-02-08T11:18:22;16.03;;;8.47;;
5343;SDS011;2694;48.950;8.970;2023-02-08T11:20:51;16.83;;;8.63;;
5343;SDS011;2694;48.950;8.970;2023-02-08T11:23:23;20.00;;;9.20;;
5343;SDS011;2694;48.950;8.970;2023-02-08T11:25:52;17.70;;;8.23;;
5343;SDS011;2694;48.950;8.970;2023-02-08T11:28:24;15.57;;;8.23;;
5343;SDS011;2694;48.950;8.970;2023-02-08T11:30:56;15.07;;;8.35;;
5343;SDS011;2694;48.950;8.970;2023-02-08T11:33:24;16.75;;;8.18;;
5343;SDS011;2694;48.950;8.970;2023-02-08T11:35:53;18.02;;;8.30;;
5343;SDS011;2694;48.950;8.970;2023-02-08T11:38:25;15.95;;;8.40;;
5343;SDS011;2694;48.950;8.970;2023-02-08T11:40:55;14.40;;;7.90;;
5343;SDS011;2694;48.950;8.970;2023-02-08T11:43:25;17.40;;;8.90;;
5343;SDS011;2694;48.950;8.970;2023-02-08T11:45:54;16.67;;;7.82;;
5343;SDS011;2694;48.950;8.970;2023-02-08T11:48:23;17.43;;;7.90;;
5343;SDS011;2694;48.950;8.970;2023-02-08T11:50:57;14.77;;;8.63;;
5343;SDS011;2694;48.950;8.970;2023-02-08T11:53:31;13.30;;;7.35;;
5343;SDS011;2694;48.950;8.970;2023-02-08T11:56:08;14.73;;;6.28;;
5343;SDS011;2694;48.950;8.970;2023-02-08T11:58:42;12.38;;;6.88;;
5343;SDS011;2694;48.950;8.970;2023-02-08T12:01:23;17.83;;;7.32;;
5343;SDS011;2694;48.950;8.970;2023-02-08T12:03:53;12.20;;;6.93;;
5343;SDS011;2694;48.950;8.970;2023-02-08T12:09:26;14.45;;;7.15;;
5343;SDS011;2694;48.950;8.970;2023-02-08T12:12:02;12.75;;;6.68;;
5343;SDS011;2694;48.950;8.970;2023-02-08T12:14:44;15.25;;;6.85;;
5343;SDS011;2694;48.950;8.970;2023-02-08T12:20:23;13.73;;;6.50;;
5343;SDS011;2694;48.950;8.970;2023-02-08T12:23:05;13.55;;;6.80;;
5343;SDS011;2694;48.950;8.970;2023-02-08T12:25:47;13.32;;;6.40;;
5343;SDS011;2694;48.950;8.970;2023-02-08T12:28:24;12.20;;;6.37;;
5343;SDS011;2694;48.950;8.970;2023-02-08T12:31:02;12.43;;;5.78;;
5343;SDS011;2694;48.950;8.970;2023-02-08T12:33:38;13.50;;;6.33;;
5343;SDS011;2694;48.950;8.970;2023-02-08T12:36:17;10.30;;;5.88;;
5343;SDS011;2694;48.950;8.970;2023-02-08T12:42:17;11.80;;;5.97;;
5343;SDS011;2694;48.950;8.970;2023-02-08T12:45:05;13.00;;;5.70;;
5343;SDS011;2694;48.950;8.970;2023-02-08T12:47:48;15.70;;;6.85;;
5343;SDS011;2694;48.950;8.970;2023-02-08T12:50:25;11.23;;;5.40;;
5343;SDS011;2694;48.950;8.970;2023-02-08T12:52:59;12.75;;;5.63;;
5343;SDS011;2694;48.950;8.970;2023-02-08T12:55:32;10.02;;;5.45;;
5343;SDS011;2694;48.950;8.970;2023-02-08T12:58:05;11.07;;;5.60;;
5343;SDS011;2694;48.950;8.970;2023-02-08T13:00:46;12.90;;;5.35;;
5343;SDS011;2694;48.950;8.970;2023-02-08T13:03:25;9.90;;;5.05;;
5343;SDS011;2694;48.950;8.970;2023-02-08T13:06:01;11.95;;;5.78;;
5343;SDS011;2694;48.950;8.970;2023-02-08T13:08:32;10.52;;;5.22;;
5343;SDS011;2694;48.950;8.970;2023-02-08T13:11:06;10.07;;;4.65;;
5343;SDS011;2694;48.950;8.970;2023-02-08T13:13:40;8.70;;;4.57;;
5343;SDS011;2694;48.950;8.970;2023-02-08T13:16:09;9.30;;;4.60;;
5343;SDS011;2694;48.950;8.970;2023-02-08T13:18:42;9.70;;;4.60;;
5343;SDS011;2694;48.950;8.970;2023-02-08T13:21:14;11.15;;;4.60;;
5343;SDS011;2694;48.950;8.970;2023-02-08T13:23:45;8.30;;;4.60;;
5343;SDS011;2694;48.950;8.970;2023-02-08T13:26:14;10.75;;;4.72;;
5343;SDS011;2694;48.950;8.970;2023-02-08T13:28:47;11.25;;;4.25;;
5343;SDS011;2694;48.950;8.970;2023-02-08T13:31:16;6.87;;;3.93;;
5343;SDS011;2694;48.950;8.970;2023-02-08T13:33:47;8.97;;;4.00;;
5343;SDS011;2694;48.950;8.970;2023-02-08T13:36:18;10.50;;;4.83;;
5343;SDS011;2694;48.950;8.970;2023-02-08T13:38:47;11.82;;;4.60;;
5343;SDS011;2694;48.950;8.970;2023-02-08T13:41:15;9.82;;;4.47;;
5343;SDS011;2694;48.950;8.970;2023-02-08T13:43:47;9.23;;;4.83;;
5343;SDS011;2694;48.950;8.970;2023-02-08T13:46:17;9.07;;;4.80;;
5343;SDS011;2694;48.950;8.970;2023-02-08T13:48:46;9.27;;;4.67;;
5343;SDS011;2694;48.950;8.970;2023-02-08T13:54:18;7.80;;;4.63;;
5343;SDS011;2694;48.950;8.970;2023-02-08T13:56:46;7.75;;;4.00;;
5343;SDS011;2694;48.950;8.970;2023-02-08T13:59:24;10.07;;;4.10;;
5343;SDS011;2694;48.950;8.970;2023-02-08T14:04:56;9.00;;;4.00;;
5343;SDS011;2694;48.950;8.970;2023-02-08T14:08:04;7.60;;;3.67;;
5343;SDS011;2694;48.950;8.970;2023-02-08T14:10:33;6.85;;;3.33;;
5343;SDS011;2694;48.950;8.970;2023-02-08T14:13:15;7.50;;;3.40;;
5343;SDS011;2694;48.950;8.970;2023-02-08T14:19:04;4.85;;;2.50;;
5343;SDS011;2694;48.950;8.970;2023-02-08T14:21:46;5.13;;;2.95;;
5343;SDS011;2694;48.950;8.970;2023-02-08T14:24:19;5.22;;;3.05;;
5343;SDS011;2694;48.950;8.970;2023-02-08T14:26:48;6.22;;;3.00;;
5343;SDS011;2694;48.950;8.970;2023-02-08T14:29:18;5.10;;;2.90;;
5343;SDS011;2694;48.950;8.970;2023-02-08T14:31:49;6.70;;;2.80;;
5343;SDS011;2694;48.950;8.970;2023-02-08T14:34:27;4.75;;;2.38;;
5343;SDS011;2694;48.950;8.970;2023-02-08T14:36:57;5.72;;;2.90;;
5343;SDS011;2694;48.950;8.970;2023-02-08T14:39:27;8.10;;;2.72;;
5343;SDS011;2694;48.950;8.970;2023-02-08T14:41:57;7.30;;;3.20;;
5343;SDS011;2694;48.950;8.970;2023-02-08T14:50:19;7.63;;;3.72;;
5343;SDS011;2694;48.950;8.970;2023-02-08T14:52:51;9.95;;;4.80;;
5343;SDS011;2694;48.950;8.970;2023-02-08T14:55:26;10.32;;;4.05;;
5343;SDS011;2694;48.950;8.970;2023-02-08T14:57:57;8.75;;;4.18;;
5343;SDS011;2694;48.950;8.970;2023-02-08T15:00:27;7.28;;;3.70;;
5343;SDS011;2694;48.950;8.970;2023-02-08T15:02:57;9.90;;;4.70;;
5343;SDS011;2694;48.950;8.970;2023-02-08T15:05:28;16.63;;;4.60;;
5343;SDS011;2694;48.950;8.970;2023-02-08T15:08:00;7.15;;;3.97;;
5343;SDS011;2694;48.950;8.970;2023-02-08T15:10:28;9.57;;;4.38;;
5343;SDS011;2694;48.950;8.970;2023-02-08T15:12:57;7.55;;;3.78;;
5343;SDS011;2694;48.950;8.970;2023-02-08T15:15:28;8.73;;;4.13;;
5343;SDS011;2694;48.950;8.970;2023-02-08T15:17:58;8.32;;;3.88;;
5343;SDS011;2694;48.950;8.970;2023-02-08T15:20:28;8.25;;;4.50;;
5343;SDS011;2694;48.950;8.970;2023-02-08T15:22:57;11.18;;;4.43;;
5343;SDS011;2694;48.950;8.970;2023-02-08T15:25:27;9.50;;;4.65;;
5343;SDS011;2694;48.950;8.970;2023-02-08T15:27:56;11.82;;;5.07;;
5343;SDS011;2694;48.950;8.970;2023-02-08T15:30:26;13.27;;;4.75;;
5343;SDS011;2694;48.950;8.970;2023-02-08T15:32:55;9.85;;;5.05;;
5343;SDS011;2694;48.950;8.970;2023-02-08T15:35:23;10.93;;;4.63;;
5343;SDS011;2694;48.950;8.970;2023-02-08T15:37:52;10.35;;;4.85;;
5343;SDS011;2694;48.950;8.970;2023-02-08T15:40:21;9.65;;;4.95;;
5343;SDS011;2694;48.950;8.970;2023-02-08T15:42:50;7.95;;;4.70;;
5343;SDS011;2694;48.950;8.970;2023-02-08T15:45:23;9.40;;;4.70;;
5343;SDS011;2694;48.950;8.970;2023-02-08T15:47:54;10.07;;;5.30;;
5343;SDS011;2694;48.950;8.970;2023-02-08T15:50:22;11.05;;;5.35;;